KBAD/BAD METAR and TAF weather

Enter ICAO airport designator
Station Type Date Time Source
KBAD METAR 2021/07/24 20:56 UTC NOAA

KBAD 242056Z AUTO 18003KT 10SM FEW045 34/23 A3001 RMK AO2 SLP163 T03370230 57016


Station Type Date Time Source
KBAD Decoded METAR 2021/07/24 20:56 UTC NOAA

Barksdale Air Force Base, LA, United States (KBAD) 32-30N 093-40W
Jul 24, 2021 - 04:56 PM EDT / 2021.07.24 2056 UTC
Wind: from the S (180 degrees) at 3 MPH (3 KT):0
Visibility: 10 mile(s):0
Sky conditions: mostly clear
Temperature: 92.7 F (33.7 C)
Heat index: 101.8 F (38.8 C):1
Dew Point: 73.4 F (23.0 C)
Relative Humidity: 53%
Pressure (altimeter): 30.01 in. Hg (1016 hPa)
Pressure tendency: 0.05 inches (1.6 hPa) lower than three hours ago
ob: KBAD 242056Z AUTO 18003KT 10SM FEW045 34/23 A3001 RMK AO2 SLP163 T03370230 57016
cycle: 21

Station Type Date Time Source
KBAD TAF 2021/07/24 20:11 UTC NOAA

TAF KBAD 242005Z 2420/2602 27005KT 9999 SCT050 QNH3000INS
BECMG 2502/2503 24005KT 9999 SKC QNH3000INS TX35/2422Z TN25/2511Z LAST NO
AMDS AFT 2422 NEXT 2612

Example: see airport list